»·PEaware :: DAL143 KGEG-KSEA

DAL143 :: KGEG-KSEA

FLIGHT INFORMATION

Flight Status: Arrived
Operator:
Delta Air Lines
More flights by this operator :: More flights under this callsign
Pilot: Anonymous 16492 (16492)
Aircraft: BOEING 737-200
(B732)
More flights by this aircraft type
Origin: KGEG Spokane Intl
United States
Destination: KSEA Seattle-Tacoma Intl
United States
More flights between these airports :: More routes between these airports
Route: GEG257R TEMPL GLASR1
File this flight plan on PilotEdge
Remarks: Nothing to see here
Altitude:
(Current/Filed)
22,000ft
Speed:
(Current/Filed)
420kts
Departed: 24-Mar-18 02:08 PM
Arrived: 24-Mar-18 02:59 PM
Distance/Time
Traveled:
194nm/0:51
Distance/Time
To Go:
Arrived

Flight Plot

Page will automatically refresh every two minutes.

Flight plan parsing failed; only flown route is shown


Map Options




Map Legend


Flown Route
Filed Route
Departure Airport
Arrival Airport
Navaid (VOR, NDB)
Fix

Horizontal Profiles

Position Reports

Time Latitude Longitude Heading Altitude Ground
Speed
24-Mar-18 13:43 47.623432 -117.537843 285 2393ft 0kts
24-Mar-18 13:44 47.623432 -117.537843 285 2393ft 0kts
24-Mar-18 13:45 47.623432 -117.537843 285 2393ft 0kts
24-Mar-18 13:46 47.623432 -117.537843 285 2393ft 0kts
24-Mar-18 13:47 47.623432 -117.537843 285 2393ft 0kts
24-Mar-18 13:48 47.623432 -117.537843 285 2393ft 0kts
24-Mar-18 13:49 47.623432 -117.537843 285 2393ft 0kts
24-Mar-18 13:50 47.623432 -117.537843 285 2393ft 0kts
24-Mar-18 13:51 47.623432 -117.537843 285 2393ft 0kts
24-Mar-18 13:52 47.623432 -117.537843 285 2393ft 0kts
24-Mar-18 13:53 47.623432 -117.537843 285 2393ft 0kts
24-Mar-18 13:54 47.623432 -117.537843 285 2393ft 0kts
24-Mar-18 13:55 47.623432 -117.537843 285 2393ft 0kts
24-Mar-18 13:56 47.623432 -117.537843 285 2393ft 0kts
24-Mar-18 13:57 47.623432 -117.537843 285 2393ft 0kts
24-Mar-18 13:58 47.623432 -117.537843 285 2393ft 0kts
24-Mar-18 13:59 47.623432 -117.537843 285 2393ft 0kts
24-Mar-18 14:00 47.623354 -117.537439 285 2393ft 2kts
24-Mar-18 14:01 47.623079 -117.536683 340 2393ft 2kts
24-Mar-18 14:02 47.622707 -117.536846 45 2393ft 0kts
24-Mar-18 14:03 47.622707 -117.536846 45 2393ft 0kts
24-Mar-18 14:04 47.622707 -117.536846 45 2393ft 0kts
24-Mar-18 14:05 47.622707 -117.536845 45 2393ft 0kts
24-Mar-18 14:06 47.623571 -117.533808 45 2393ft 22kts
24-Mar-18 14:07 47.630244 -117.523795 44 2393ft 45kts
24-Mar-18 14:08 47.631870 -117.519431 136 2393ft 0kts
24-Mar-18 14:09 47.630307 -117.519614 224 2393ft 0kts
24-Mar-18 14:10 47.614593 -117.543427 224 3009ft 158kts
24-Mar-18 14:11 47.576799 -117.602457 219 5333ft 199kts
24-Mar-18 14:12 47.538973 -117.647380 245 6994ft 227kts
24-Mar-18 14:13 47.556117 -117.735095 290 9580ft 238kts
24-Mar-18 14:14 47.580443 -117.852591 281 11542ft 288kts
24-Mar-18 14:15 47.589272 -117.943949 279 14084ft 276kts
24-Mar-18 14:16 47.605092 -118.058420 275 15891ft 298kts
24-Mar-18 14:17 47.616268 -118.182352 275 17514ft 318kts
24-Mar-18 14:18 47.628148 -118.314892 275 19157ft 329kts
24-Mar-18 14:19 47.640065 -118.450399 275 20611ft 338kts
24-Mar-18 14:20 47.652141 -118.590657 275 21884ft 347kts
24-Mar-18 14:21 47.664531 -118.738724 274 21929ft 384kts
24-Mar-18 14:22 47.678202 -118.902567 275 21924ft 413kts
24-Mar-18 14:23 47.692612 -119.075442 276 21921ft 433kts
24-Mar-18 14:24 47.707412 -119.255589 276 22001ft 445kts
24-Mar-18 14:25 47.722073 -119.438141 276 22001ft 448kts
24-Mar-18 14:26 47.736212 -119.617921 276 21902ft 431kts
24-Mar-18 14:27 47.748335 -119.784319 275 21905ft 418kts
24-Mar-18 14:28 47.760904 -119.953569 276 21894ft 409kts
24-Mar-18 14:29 47.773261 -120.120562 276 21888ft 403kts
24-Mar-18 14:30 47.785204 -120.285057 276 21888ft 398kts
24-Mar-18 14:31 47.797974 -120.447326 276 21892ft 394kts
24-Mar-18 14:32 47.809825 -120.609494 276 21640ft 388kts
24-Mar-18 14:33 47.819856 -120.753657 275 21298ft 325kts
24-Mar-18 14:34 47.829167 -120.885860 275 19453ft 318kts
24-Mar-18 14:35 47.837562 -121.004034 276 17840ft 311kts
24-Mar-18 14:36 47.846499 -121.130838 275 16062ft 306kts
24-Mar-18 14:37 47.855124 -121.255312 275 14381ft 300kts
24-Mar-18 14:38 47.863439 -121.377268 275 12795ft 293kts
24-Mar-18 14:39 47.871241 -121.493370 275 12006ft 259kts
24-Mar-18 14:40 47.877583 -121.589161 275 11998ft 205kts
24-Mar-18 14:41 47.883049 -121.675893 272 12060ft 243kts
24-Mar-18 14:42 47.839780 -121.763349 223 12030ft 298kts
24-Mar-18 14:43 47.778735 -121.847149 220 12010ft 305kts
24-Mar-18 14:44 47.715549 -121.919047 218 11159ft 281kts
24-Mar-18 14:45 47.653996 -121.988299 218 9702ft 277kts
24-Mar-18 14:46 47.596305 -122.053248 218 8660ft 261kts
24-Mar-18 14:47 47.543016 -122.113081 218 8103ft 232kts
24-Mar-18 14:48 47.493631 -122.168568 218 6982ft 227kts
24-Mar-18 14:49 47.444661 -122.223655 218 5771ft 221kts
24-Mar-18 14:50 47.387474 -122.239871 175 4281ft 220kts
24-Mar-18 14:51 47.327406 -122.231522 175 3000ft 209kts
24-Mar-18 14:52 47.272762 -122.226492 199 2994ft 198kts
24-Mar-18 14:53 47.272516 -122.288436 335 1984ft 178kts
24-Mar-18 14:54 47.311476 -122.309404 0 2009ft 143kts
24-Mar-18 14:55 47.349725 -122.308680 358 1943ft 143kts
24-Mar-18 14:56 47.385705 -122.308348 358 1266ft 121kts
24-Mar-18 14:57 47.419578 -122.308011 358 693ft 119kts
24-Mar-18 14:58 47.445329 -122.307904 11 442ft 28kts
24-Mar-18 14:59 47.445626 -122.306288 161 442ft 6kts
24-Mar-18 15:00 47.442173 -122.304324 112 442ft 6kts
24-Mar-18 15:01 47.442141 -122.304208 112 442ft 0kts

Navigation Log

Ident Type
Flight plan parsing failed, navigation log unavailable